createdAt,value
2023-02-25T00:01:51.289Z,13.43
2023-02-25T00:04:29.725Z,13.20
2023-02-25T00:06:57.907Z,13.30
2023-02-25T00:09:25.991Z,11.70
2023-02-25T00:11:54.108Z,12.93
2023-02-25T00:14:22.343Z,12.37
2023-02-25T00:16:51.168Z,12.07
2023-02-25T00:19:19.291Z,13.13
2023-02-25T00:21:48.846Z,13.87
2023-02-25T00:24:17.323Z,11.97
2023-02-25T00:26:45.788Z,13.20
2023-02-25T00:29:15.983Z,12.37
2023-02-25T00:31:44.313Z,12.60
2023-02-25T00:34:12.563Z,11.73
2023-02-25T00:36:41.024Z,12.40
2023-02-25T00:39:10.798Z,12.50
2023-02-25T00:41:39.801Z,13.37
2023-02-25T00:44:08.368Z,11.90
2023-02-25T00:46:36.955Z,11.50
2023-02-25T00:49:05.093Z,11.07
2023-02-25T00:51:35.184Z,12.37
2023-02-25T00:54:03.405Z,11.87
2023-02-25T00:56:32.897Z,11.50
2023-02-25T00:59:01.183Z,10.40
2023-02-25T01:01:33.464Z,11.93
2023-02-25T01:04:02.510Z,11.40
2023-02-25T01:06:33.758Z,10.30
2023-02-25T01:09:02.357Z,11.20
2023-02-25T01:11:34.558Z,10.60
2023-02-25T01:14:06.930Z,11.17
2023-02-25T01:16:36.509Z,10.77
2023-02-25T01:19:07.905Z,11.77
2023-02-25T01:21:39.087Z,11.47
2023-02-25T01:24:09.964Z,10.43
2023-02-25T01:26:42.322Z,10.13
2023-02-25T01:29:11.868Z,9.90
2023-02-25T01:31:40.335Z,11.53
2023-02-25T01:34:11.745Z,10.50
2023-02-25T01:36:41.573Z,10.30
2023-02-25T01:39:10.624Z,10.03
2023-02-25T01:41:43.429Z,9.97
2023-02-25T01:44:14.647Z,11.00
2023-02-25T01:46:44.005Z,10.23
2023-02-25T01:49:16.496Z,11.47
2023-02-25T01:51:48.671Z,10.97
2023-02-25T01:54:18.413Z,11.73
2023-02-25T01:56:51.487Z,10.67
2023-02-25T01:59:24.384Z,10.90
2023-02-25T02:01:52.909Z,11.23
2023-02-25T02:04:22.401Z,10.80
2023-02-25T02:06:51.765Z,10.93
2023-02-25T02:09:22.362Z,11.60
2023-02-25T02:11:53.355Z,10.27
2023-02-25T02:14:27.030Z,9.60
2023-02-25T02:17:12.754Z,9.70
2023-02-25T02:20:00.416Z,9.37
2023-02-25T02:22:33.842Z,11.13
2023-02-25T02:25:39.186Z,9.97
2023-02-25T02:28:48.726Z,10.67
2023-02-25T02:31:49.474Z,10.33
2023-02-25T02:34:30.767Z,9.87
2023-02-25T02:37:08.003Z,9.93
2023-02-25T02:39:48.651Z,8.90
2023-02-25T02:42:27.623Z,8.83
2023-02-25T02:45:03.016Z,9.70
2023-02-25T02:47:36.237Z,9.63
2023-02-25T02:50:08.017Z,9.43
2023-02-25T02:52:40.835Z,10.20
2023-02-25T02:55:22.242Z,9.23
2023-02-25T02:57:55.440Z,8.53
2023-02-25T03:00:27.283Z,8.53
2023-02-25T03:03:02.845Z,9.13
2023-02-25T03:05:34.478Z,8.37
2023-02-25T03:08:09.050Z,7.57
2023-02-25T03:10:37.494Z,8.23
2023-02-25T03:13:05.958Z,8.43
2023-02-25T03:15:35.527Z,7.43
2023-02-25T03:18:09.042Z,8.20
2023-02-25T03:20:41.646Z,7.73
2023-02-25T03:23:13.898Z,8.23
2023-02-25T03:25:47.870Z,8.67
2023-02-25T03:28:30.001Z,7.23
2023-02-25T03:31:06.455Z,7.50
2023-02-25T03:33:41.344Z,7.90
2023-02-25T03:36:14.283Z,7.30
2023-02-25T03:38:46.312Z,7.53
2023-02-25T03:41:16.615Z,7.47
2023-02-25T03:43:49.460Z,6.83
2023-02-25T03:46:20.881Z,5.53
2023-02-25T03:48:52.386Z,6.10
2023-02-25T03:51:25.270Z,5.47
2023-02-25T03:53:53.538Z,4.73
2023-02-25T03:56:27.712Z,5.40
2023-02-25T03:58:55.999Z,4.53
2023-02-25T04:01:29.316Z,4.53
2023-02-25T04:03:58.900Z,3.93
2023-02-25T04:06:27.049Z,4.07
2023-02-25T04:08:55.195Z,3.67
2023-02-25T04:11:23.871Z,3.17
2023-02-25T04:13:52.106Z,3.50
2023-02-25T04:16:21.055Z,3.10
2023-02-25T04:18:49.399Z,2.70
2023-02-25T04:21:29.944Z,2.60
2023-02-25T04:23:58.874Z,2.60
2023-02-25T04:26:27.155Z,1.90
2023-02-25T04:28:55.576Z,2.10
2023-02-25T04:31:24.076Z,1.80
2023-02-25T04:33:52.391Z,1.60
2023-02-25T04:36:29.669Z,1.77
2023-02-25T04:38:59.129Z,1.17
2023-02-25T04:41:30.932Z,1.50
2023-02-25T04:43:59.445Z,1.70
2023-02-25T04:46:27.904Z,1.33
2023-02-25T04:48:56.021Z,1.13
2023-02-25T04:51:24.281Z,1.17
2023-02-25T04:53:54.135Z,1.10
2023-02-25T04:56:22.740Z,1.20
2023-02-25T04:58:51.244Z,1.20
2023-02-25T05:01:19.731Z,0.90
2023-02-25T05:03:47.876Z,0.70
2023-02-25T05:06:16.010Z,0.73
2023-02-25T05:08:44.113Z,0.80
2023-02-25T05:11:13.635Z,0.97
2023-02-25T05:13:41.708Z,0.87
2023-02-25T05:16:12.855Z,0.50
2023-02-25T05:18:42.677Z,0.73
2023-02-25T05:21:12.387Z,0.80
2023-02-25T05:23:40.508Z,0.70
2023-02-25T05:26:09.403Z,0.60
2023-02-25T05:28:39.515Z,0.50
2023-02-25T05:31:08.804Z,0.60
2023-02-25T05:33:37.860Z,0.60
2023-02-25T05:36:07.485Z,0.53
2023-02-25T05:38:36.843Z,0.67
2023-02-25T05:41:07.004Z,0.63
2023-02-25T05:43:36.174Z,0.63
2023-02-25T05:46:11.593Z,0.73
2023-02-25T05:48:41.309Z,0.70
2023-02-25T05:51:11.914Z,0.57
2023-02-25T05:53:40.357Z,0.70
2023-02-25T05:56:10.229Z,0.67
2023-02-25T05:58:38.404Z,0.60
2023-02-25T06:01:11.530Z,0.80
2023-02-25T06:03:40.747Z,0.80
2023-02-25T06:06:10.453Z,0.60
2023-02-25T06:08:39.619Z,0.40
2023-02-25T06:11:08.563Z,0.60
2023-02-25T06:13:36.968Z,0.60
2023-02-25T06:16:06.014Z,0.70
2023-02-25T06:18:40.080Z,0.90
2023-02-25T06:21:11.317Z,0.70
2023-02-25T06:23:41.087Z,0.87
2023-02-25T06:26:12.210Z,0.73
2023-02-25T06:28:40.381Z,0.80
2023-02-25T06:31:10.444Z,1.80
2023-02-25T06:33:40.380Z,1.73
2023-02-25T06:36:09.455Z,0.97
2023-02-25T06:38:37.777Z,0.60
2023-02-25T06:41:10.178Z,0.60
2023-02-25T06:43:39.561Z,0.77
2023-02-25T06:46:09.385Z,0.60
2023-02-25T06:48:40.888Z,0.70
2023-02-25T06:51:11.907Z,0.60
2023-02-25T06:56:42.709Z,0.97
2023-02-25T06:59:11.049Z,0.70
2023-02-25T07:01:39.521Z,0.77
2023-02-25T07:04:09.194Z,1.00
2023-02-25T07:06:37.961Z,0.70
2023-02-25T07:09:10.079Z,0.80
2023-02-25T07:11:40.905Z,0.70
2023-02-25T07:14:14.602Z,0.80
2023-02-25T07:16:42.733Z,2.37
2023-02-25T07:19:17.778Z,2.27
2023-02-25T07:21:52.720Z,2.60
2023-02-25T07:24:21.119Z,2.27
2023-02-25T07:26:49.422Z,1.90
2023-02-25T07:29:17.563Z,1.90
2023-02-25T07:31:46.183Z,1.70
2023-02-25T07:34:16.242Z,2.60
2023-02-25T07:36:44.471Z,3.30
2023-02-25T07:39:13.551Z,2.57
2023-02-25T07:41:44.662Z,2.37
2023-02-25T07:44:13.641Z,1.73
2023-02-25T07:46:42.945Z,2.00
2023-02-25T07:49:11.114Z,2.50
2023-02-25T07:51:43.470Z,1.73
2023-02-25T07:54:11.736Z,2.07
2023-02-25T07:56:39.852Z,1.67
2023-02-25T07:59:07.956Z,1.97
2023-02-25T08:01:37.510Z,1.70
2023-02-25T08:04:07.699Z,1.93
2023-02-25T08:06:37.688Z,1.90
2023-02-25T08:09:07.621Z,1.93
2023-02-25T08:11:36.009Z,1.90
2023-02-25T08:14:04.979Z,1.80
2023-02-25T08:16:34.332Z,1.80
2023-02-25T08:19:02.469Z,1.50
2023-02-25T08:21:31.433Z,1.60
2023-02-25T08:24:00.388Z,1.30
2023-02-25T08:26:30.058Z,1.73
2023-02-25T08:28:58.706Z,1.57
2023-02-25T08:31:27.767Z,1.40
2023-02-25T08:33:57.319Z,1.00
2023-02-25T08:36:26.953Z,1.60
2023-02-25T08:38:57.459Z,1.13
2023-02-25T08:41:27.426Z,1.83
2023-02-25T08:43:58.279Z,2.23
2023-02-25T08:46:29.509Z,2.77
2023-02-25T08:48:58.468Z,2.53
2023-02-25T08:51:34.275Z,2.30
2023-02-25T08:54:04.854Z,2.20
2023-02-25T08:56:33.180Z,2.10
2023-02-25T08:59:03.005Z,1.80
2023-02-25T09:01:45.005Z,1.03
2023-02-25T09:04:14.405Z,0.80
2023-02-25T09:06:42.498Z,0.80
2023-02-25T09:09:12.405Z,0.80
2023-02-25T09:11:41.010Z,1.07
2023-02-25T09:14:11.568Z,0.73
2023-02-25T09:16:39.835Z,1.10
2023-02-25T09:19:08.138Z,1.97
2023-02-25T09:21:37.192Z,1.87
2023-02-25T09:24:05.802Z,1.73
2023-02-25T09:26:34.087Z,1.58
2023-02-25T09:29:02.324Z,1.70
2023-02-25T09:31:33.797Z,1.63
2023-02-25T09:34:04.667Z,1.63
2023-02-25T09:36:33.502Z,1.52
2023-02-25T09:39:01.949Z,1.70
2023-02-25T09:41:36.473Z,2.70
2023-02-25T09:44:08.644Z,2.05
2023-02-25T09:46:41.837Z,2.03
2023-02-25T09:49:16.734Z,2.40
2023-02-25T09:51:50.414Z,2.45
2023-02-25T09:54:24.368Z,2.35
2023-02-25T09:56:55.647Z,1.70
2023-02-25T09:59:24.597Z,1.58
2023-02-25T10:01:58.347Z,1.38
2023-02-25T10:04:33.682Z,1.50
2023-02-25T10:07:09.595Z,1.33
2023-02-25T10:09:46.577Z,1.70
2023-02-25T10:12:27.428Z,1.75
2023-02-25T10:15:22.002Z,1.23
2023-02-25T10:18:07.070Z,1.30
2023-02-25T10:20:53.212Z,1.20
2023-02-25T10:23:37.915Z,1.20
2023-02-25T10:26:13.411Z,1.20
2023-02-25T10:28:44.112Z,1.00
2023-02-25T10:31:18.595Z,1.20
2023-02-25T10:33:50.670Z,1.20
2023-02-25T10:36:20.753Z,1.20
2023-02-25T10:38:51.083Z,1.08
2023-02-25T10:41:22.746Z,1.20
2023-02-25T10:43:52.689Z,1.30
2023-02-25T10:46:27.158Z,1.30
2023-02-25T10:49:00.399Z,1.48
2023-02-25T10:51:29.926Z,0.70
2023-02-25T10:54:06.509Z,1.20
2023-02-25T10:56:42.617Z,0.90
2023-02-25T10:59:31.253Z,0.80
2023-02-25T11:02:01.476Z,1.60
2023-02-25T11:04:36.371Z,2.20
2023-02-25T11:07:25.757Z,0.80
2023-02-25T11:10:09.344Z,0.68
2023-02-25T11:12:42.373Z,0.50
2023-02-25T11:15:43.078Z,0.80
2023-02-25T11:18:21.771Z,0.88
2023-02-25T11:20:54.735Z,0.70
2023-02-25T11:23:28.174Z,0.73
2023-02-25T11:25:57.577Z,0.70
2023-02-25T11:28:32.393Z,0.70
2023-02-25T11:31:19.684Z,0.60
2023-02-25T11:33:52.836Z,0.70
2023-02-25T11:36:31.112Z,0.60
2023-02-25T11:39:17.203Z,0.80
2023-02-25T11:41:46.609Z,0.68
2023-02-25T11:44:24.295Z,0.60
2023-02-25T11:47:00.153Z,0.70
2023-02-25T11:49:47.743Z,0.70
2023-02-25T11:52:24.177Z,0.70
2023-02-25T11:55:12.762Z,0.70
2023-02-25T11:57:48.489Z,0.73
2023-02-25T12:00:25.682Z,0.70
2023-02-25T12:03:36.127Z,0.80
2023-02-25T12:06:17.447Z,0.57
2023-02-25T12:09:34.006Z,0.70
2023-02-25T12:12:33.626Z,0.50
2023-02-25T12:15:43.234Z,0.60
2023-02-25T12:19:04.384Z,0.60
2023-02-25T12:22:13.197Z,0.80
2023-02-25T12:24:57.931Z,0.80
2023-02-25T12:28:01.631Z,1.80
2023-02-25T12:30:54.761Z,0.90
2023-02-25T12:33:34.813Z,0.70
2023-02-25T12:36:27.658Z,0.95
2023-02-25T12:39:33.952Z,0.50
2023-02-25T12:42:21.326Z,0.65
2023-02-25T12:45:23.891Z,0.80
2023-02-25T12:48:06.532Z,0.60
2023-02-25T12:50:58.897Z,0.70
2023-02-25T12:53:38.678Z,0.70
2023-02-25T12:56:34.505Z,0.47
2023-02-25T12:59:22.742Z,0.50
2023-02-25T13:02:02.134Z,0.80
2023-02-25T13:04:42.859Z,0.73
2023-02-25T13:07:48.277Z,0.68
2023-02-25T13:10:38.484Z,0.90
2023-02-25T13:13:42.843Z,0.98
2023-02-25T13:16:28.460Z,0.50
2023-02-25T13:19:12.815Z,1.65
2023-02-25T13:21:56.466Z,0.70
2023-02-25T13:24:49.177Z,0.40
2023-02-25T13:27:44.179Z,0.60
2023-02-25T13:30:27.449Z,0.77
2023-02-25T13:33:12.637Z,0.70
2023-02-25T13:35:55.130Z,0.73
2023-02-25T13:38:41.598Z,1.52
2023-02-25T13:41:28.113Z,0.60
2023-02-25T13:44:19.200Z,0.35
2023-02-25T13:47:04.160Z,0.65
2023-02-25T13:49:55.970Z,0.40
2023-02-25T13:52:31.683Z,0.30
2023-02-25T13:55:37.046Z,0.60
2023-02-25T13:58:37.419Z,0.30
2023-02-25T14:01:43.526Z,0.50
2023-02-25T14:05:00.434Z,0.70
2023-02-25T14:07:47.202Z,0.47
2023-02-25T14:10:46.607Z,0.60
2023-02-25T14:13:59.511Z,0.50
2023-02-25T14:16:46.835Z,0.60
2023-02-25T14:19:30.483Z,0.50
2023-02-25T14:22:24.411Z,0.47
2023-02-25T14:25:07.502Z,0.60
2023-02-25T14:27:42.241Z,0.50
2023-02-25T14:30:25.292Z,0.40
2023-02-25T14:33:06.728Z,0.50
2023-02-25T14:35:53.595Z,0.50
2023-02-25T14:38:38.379Z,0.50
2023-02-25T14:41:29.673Z,0.53
2023-02-25T14:44:05.216Z,0.60
2023-02-25T14:46:40.439Z,0.47
2023-02-25T14:49:15.126Z,0.70
2023-02-25T14:52:20.960Z,0.40
2023-02-25T14:55:31.324Z,0.50
2023-02-25T14:58:45.740Z,0.40
2023-02-25T15:02:07.199Z,0.50
2023-02-25T15:05:16.607Z,0.80
2023-02-25T15:08:19.136Z,0.60
2023-02-25T15:11:12.495Z,0.40
2023-02-25T15:14:20.400Z,0.90
2023-02-25T15:17:22.004Z,0.87
2023-02-25T15:20:15.566Z,0.60
2023-02-25T15:22:56.988Z,0.60
2023-02-25T15:25:39.877Z,0.50
2023-02-25T15:28:41.186Z,0.80
2023-02-25T15:31:30.387Z,0.70
2023-02-25T15:34:36.398Z,0.63
2023-02-25T15:37:33.376Z,0.90
2023-02-25T15:40:24.484Z,0.70
2023-02-25T15:42:55.470Z,0.77
2023-02-25T15:45:39.790Z,0.50
2023-02-25T15:48:35.449Z,0.70
2023-02-25T15:51:10.414Z,0.80
2023-02-25T15:53:48.822Z,0.43
2023-02-25T15:56:48.247Z,1.07
2023-02-25T15:59:49.847Z,0.63
2023-02-25T16:02:54.376Z,0.70
2023-02-25T16:08:27.098Z,0.50
2023-02-25T16:11:00.425Z,0.50
2023-02-25T16:13:33.275Z,0.70
2023-02-25T16:16:07.820Z,0.80
2023-02-25T16:18:43.565Z,0.80
2023-02-25T16:21:22.492Z,0.60
2023-02-25T16:23:55.162Z,0.60
2023-02-25T16:26:37.381Z,0.60
2023-02-25T16:29:25.275Z,0.60
2023-02-25T16:32:03.519Z,0.60
2023-02-25T16:34:41.551Z,0.53
2023-02-25T16:37:18.976Z,0.50
2023-02-25T16:39:50.313Z,0.63
2023-02-25T16:42:21.912Z,0.73
2023-02-25T16:45:00.769Z,1.00
2023-02-25T16:47:32.772Z,1.17
2023-02-25T16:50:08.428Z,0.80
2023-02-25T16:52:41.745Z,0.97
2023-02-25T16:55:21.985Z,0.80
2023-02-25T16:58:04.412Z,0.60
2023-02-25T17:00:34.836Z,0.93
2023-02-25T17:03:12.622Z,0.60
2023-02-25T17:05:41.411Z,0.70
2023-02-25T17:08:17.171Z,0.60
2023-02-25T17:10:49.994Z,0.90
2023-02-25T17:13:25.420Z,0.83
2023-02-25T17:15:56.052Z,0.90
2023-02-25T17:18:31.194Z,0.87
2023-02-25T17:21:07.323Z,0.87
2023-02-25T17:23:42.216Z,1.07
2023-02-25T17:26:17.507Z,1.30
2023-02-25T17:28:49.063Z,0.80
2023-02-25T17:31:19.244Z,0.90
2023-02-25T17:33:50.782Z,1.20
2023-02-25T17:36:23.171Z,2.60
2023-02-25T17:38:58.038Z,1.60
2023-02-25T17:41:30.115Z,1.20
2023-02-25T17:43:59.677Z,1.40
2023-02-25T17:46:36.348Z,1.30
2023-02-25T17:49:15.211Z,0.80
2023-02-25T17:51:44.724Z,0.90
2023-02-25T17:54:20.345Z,1.10
2023-02-25T17:56:58.400Z,1.03
2023-02-25T17:59:42.605Z,0.60
2023-02-25T18:02:35.919Z,0.80
2023-02-25T18:05:27.861Z,0.97
2023-02-25T18:08:18.825Z,0.73
2023-02-25T18:10:52.554Z,0.90
2023-02-25T18:13:27.979Z,1.40
2023-02-25T18:16:35.685Z,1.33
2023-02-25T18:19:11.650Z,1.00
2023-02-25T18:21:44.762Z,1.00
2023-02-25T18:24:26.850Z,0.80
2023-02-25T18:27:10.862Z,1.00
2023-02-25T18:29:42.762Z,0.90
2023-02-25T18:32:13.538Z,0.90
2023-02-25T18:34:43.400Z,1.10
2023-02-25T18:37:17.618Z,1.30
2023-02-25T18:39:49.270Z,1.20
2023-02-25T18:42:20.349Z,2.10
2023-02-25T18:44:51.395Z,1.13
2023-02-25T18:47:20.595Z,2.13
2023-02-25T18:49:49.692Z,1.87
2023-02-25T18:52:24.121Z,1.30
2023-02-25T18:54:53.743Z,1.30
2023-02-25T18:57:25.686Z,1.40
2023-02-25T18:59:58.554Z,1.20
2023-02-25T19:02:32.462Z,1.50
2023-02-25T19:05:03.439Z,1.20
2023-02-25T19:07:36.054Z,1.67
2023-02-25T19:10:08.913Z,2.00
2023-02-25T19:12:41.558Z,1.80
2023-02-25T19:15:16.317Z,2.00
2023-02-25T19:17:46.772Z,1.83
2023-02-25T19:20:17.858Z,2.20
2023-02-25T19:22:49.570Z,1.40
2023-02-25T19:25:23.825Z,1.97
2023-02-25T19:27:55.759Z,2.47
2023-02-25T19:30:30.393Z,1.73
2023-02-25T19:33:04.331Z,3.00
2023-02-25T19:35:36.386Z,1.60
2023-02-25T19:38:07.982Z,2.10
2023-02-25T19:40:38.875Z,2.07
2023-02-25T19:43:08.893Z,2.10
2023-02-25T19:45:40.840Z,1.70
2023-02-25T19:48:10.833Z,1.50
2023-02-25T19:50:43.383Z,1.53
2023-02-25T19:53:13.492Z,2.20
2023-02-25T19:55:45.282Z,1.80
2023-02-25T19:58:15.154Z,1.47
2023-02-25T20:00:47.401Z,1.30
2023-02-25T20:03:17.282Z,1.40
2023-02-25T20:05:46.818Z,1.37
2023-02-25T20:08:17.151Z,1.40
2023-02-25T20:10:47.164Z,1.40
2023-02-25T20:13:16.786Z,1.77
2023-02-25T20:15:48.413Z,1.40
2023-02-25T20:18:18.238Z,1.53
2023-02-25T20:20:46.851Z,1.30
2023-02-25T20:23:16.444Z,1.40
2023-02-25T20:25:49.098Z,1.20
2023-02-25T20:28:24.571Z,1.33
2023-02-25T20:31:05.777Z,1.57
2023-02-25T20:33:38.654Z,1.47
2023-02-25T20:36:21.307Z,1.63
2023-02-25T20:39:13.342Z,1.43
2023-02-25T20:41:45.957Z,1.67
2023-02-25T20:44:16.810Z,1.80
2023-02-25T20:46:48.347Z,1.43
2023-02-25T20:49:20.671Z,1.40
2023-02-25T20:51:52.444Z,1.30
2023-02-25T20:54:22.909Z,1.30
2023-02-25T20:56:52.208Z,1.30
2023-02-25T20:59:22.580Z,1.20
2023-02-25T21:01:53.183Z,1.10
2023-02-25T21:04:23.054Z,1.80
2023-02-25T21:06:52.447Z,1.50
2023-02-25T21:09:25.297Z,1.57
2023-02-25T21:11:57.530Z,1.70
2023-02-25T21:14:27.649Z,1.43
2023-02-25T21:17:00.771Z,1.20
2023-02-25T21:19:29.736Z,1.13
2023-02-25T21:21:58.699Z,1.30
2023-02-25T21:24:29.628Z,1.40
2023-02-25T21:26:59.271Z,1.70
2023-02-25T21:29:32.495Z,1.67
2023-02-25T21:32:03.163Z,1.40
2023-02-25T21:34:33.573Z,1.50
2023-02-25T21:37:02.950Z,1.50
2023-02-25T21:39:32.540Z,1.67
2023-02-25T21:42:01.431Z,1.63
2023-02-25T21:44:29.991Z,1.30
2023-02-25T21:46:59.291Z,1.40
2023-02-25T21:49:31.511Z,1.40
2023-02-25T21:52:01.989Z,1.60
2023-02-25T21:54:30.848Z,1.63
2023-02-25T21:56:59.588Z,1.40
2023-02-25T21:59:28.878Z,1.83
2023-02-25T22:01:57.438Z,1.60
2023-02-25T22:04:25.809Z,1.50
2023-02-25T22:06:59.218Z,1.47
2023-02-25T22:09:34.038Z,1.47
2023-02-25T22:12:02.475Z,1.50
2023-02-25T22:14:30.642Z,1.60
2023-02-25T22:17:01.584Z,1.40
2023-02-25T22:19:30.068Z,1.43
2023-02-25T22:21:59.724Z,1.80
2023-02-25T22:24:27.897Z,1.87
2023-02-25T22:26:56.049Z,2.40
2023-02-25T22:29:24.381Z,2.20
2023-02-25T22:31:52.863Z,2.20
2023-02-25T22:34:21.722Z,2.00
2023-02-25T22:36:49.866Z,1.97
2023-02-25T22:39:19.389Z,1.40
2023-02-25T22:41:47.552Z,2.00
2023-02-25T22:44:15.766Z,1.87
2023-02-25T22:46:44.276Z,2.10
2023-02-25T22:49:13.014Z,1.77
2023-02-25T22:51:42.863Z,2.07
2023-02-25T22:54:11.516Z,2.00
2023-02-25T22:56:41.627Z,1.70
2023-02-25T22:59:10.556Z,2.00
2023-02-25T23:01:39.265Z,1.67
2023-02-25T23:04:08.534Z,1.50
2023-02-25T23:06:43.835Z,2.30
2023-02-25T23:09:13.314Z,2.30
2023-02-25T23:11:44.233Z,1.90
2023-02-25T23:14:12.619Z,2.00
2023-02-25T23:16:42.701Z,2.07
2023-02-25T23:19:13.523Z,1.70
2023-02-25T23:21:41.969Z,1.70
2023-02-25T23:24:14.000Z,1.50
2023-02-25T23:26:44.436Z,1.50
2023-02-25T23:29:13.373Z,1.20
2023-02-25T23:31:44.389Z,1.50
2023-02-25T23:34:14.913Z,1.40
2023-02-25T23:36:44.486Z,1.40
2023-02-25T23:39:14.130Z,1.23
2023-02-25T23:41:44.204Z,1.40
2023-02-25T23:44:13.608Z,1.40
2023-02-25T23:46:44.964Z,1.70
2023-02-25T23:49:15.031Z,1.50
2023-02-25T23:51:44.518Z,1.87
2023-02-25T23:54:16.480Z,1.90
2023-02-25T23:56:46.521Z,3.07
2023-02-25T23:59:15.011Z,2.70
